sensor_id;sensor_type;location;lat;lon;timestamp;pressure;altitude;pressure_sealevel;temperature;humidity
63006;BME280;53704;52.532;6.426;2022-10-15T00:00:44;100716.69;;;10.97;100.00
63006;BME280;53704;52.532;6.426;2022-10-15T00:03:09;100714.66;;;10.91;100.00
63006;BME280;53704;52.532;6.426;2022-10-15T00:05:36;100712.09;;;10.56;100.00
63006;BME280;53704;52.532;6.426;2022-10-15T00:08:02;100724.56;;;10.49;100.00
63006;BME280;53704;52.532;6.426;2022-10-15T00:10:28;100718.69;;;10.45;100.00
63006;BME280;53704;52.532;6.426;2022-10-15T00:12:53;100719.84;;;10.51;100.00
63006;BME280;53704;52.532;6.426;2022-10-15T00:15:18;100715.84;;;10.63;100.00
63006;BME280;53704;52.532;6.426;2022-10-15T00:17:44;100721.88;;;10.57;100.00
63006;BME280;53704;52.532;6.426;2022-10-15T00:20:09;100721.66;;;10.34;100.00
63006;BME280;53704;52.532;6.426;2022-10-15T00:22:36;100716.06;;;10.27;100.00
63006;BME280;53704;52.532;6.426;2022-10-15T00:25:02;100717.38;;;10.15;100.00
63006;BME280;53704;52.532;6.426;2022-10-15T00:27:28;100715.22;;;10.19;100.00
63006;BME280;53704;52.532;6.426;2022-10-15T00:29:53;100716.22;;;10.26;100.00
63006;BME280;53704;52.532;6.426;2022-10-15T00:32:19;100707.47;;;10.07;100.00
63006;BME280;53704;52.532;6.426;2022-10-15T00:34:45;100709.44;;;9.97;100.00
63006;BME280;53704;52.532;6.426;2022-10-15T00:37:10;100707.06;;;9.94;100.00
63006;BME280;53704;52.532;6.426;2022-10-15T00:39:35;100697.69;;;9.98;100.00
63006;BME280;53704;52.532;6.426;2022-10-15T00:42:01;100699.66;;;9.88;100.00
63006;BME280;53704;52.532;6.426;2022-10-15T00:46:56;100707.13;;;10.10;100.00
63006;BME280;53704;52.532;6.426;2022-10-15T00:49:37;100711.63;;;10.02;100.00
63006;BME280;53704;52.532;6.426;2022-10-15T00:52:06;100699.75;;;9.70;100.00
63006;BME280;53704;52.532;6.426;2022-10-15T00:54:46;100695.38;;;9.69;100.00
63006;BME280;53704;52.532;6.426;2022-10-15T00:57:12;100693.56;;;9.77;100.00
63006;BME280;53704;52.532;6.426;2022-10-15T00:59:43;100699.28;;;9.74;100.00
63006;BME280;53704;52.532;6.426;2022-10-15T01:02:11;100697.63;;;9.47;100.00
63006;BME280;53704;52.532;6.426;2022-10-15T01:04:37;100680.13;;;9.43;100.00
63006;BME280;53704;52.532;6.426;2022-10-15T01:07:03;100692.19;;;9.39;100.00
63006;BME280;53704;52.532;6.426;2022-10-15T01:09:29;100697.09;;;9.44;100.00
63006;BME280;53704;52.532;6.426;2022-10-15T01:11:55;100692.06;;;9.49;100.00
63006;BME280;53704;52.532;6.426;2022-10-15T01:22:51;100694.81;;;9.57;100.00
63006;BME280;53704;52.532;6.426;2022-10-15T01:31:03;100690.47;;;9.30;100.00
63006;BME280;53704;52.532;6.426;2022-10-15T01:33:43;100686.81;;;9.39;100.00
63006;BME280;53704;52.532;6.426;2022-10-15T01:36:59;100686.63;;;9.32;100.00
63006;BME280;53704;52.532;6.426;2022-10-15T01:39:33;100682.78;;;9.35;100.00
63006;BME280;53704;52.532;6.426;2022-10-15T01:42:11;100690.06;;;9.43;100.00
63006;BME280;53704;52.532;6.426;2022-10-15T01:44:43;100682.03;;;9.51;100.00
63006;BME280;53704;52.532;6.426;2022-10-15T01:47:26;100686.31;;;9.35;100.00
63006;BME280;53704;52.532;6.426;2022-10-15T01:49:55;100682.53;;;9.54;100.00
63006;BME280;53704;52.532;6.426;2022-10-15T01:52:26;100681.38;;;9.57;100.00
63006;BME280;53704;52.532;6.426;2022-10-15T01:54:54;100692.78;;;9.51;100.00
63006;BME280;53704;52.532;6.426;2022-10-15T01:57:21;100679.38;;;9.59;100.00
63006;BME280;53704;52.532;6.426;2022-10-15T01:59:48;100683.63;;;9.70;100.00
63006;BME280;53704;52.532;6.426;2022-10-15T02:02:14;100680.91;;;9.62;100.00
63006;BME280;53704;52.532;6.426;2022-10-15T02:04:39;100680.94;;;9.70;100.00
63006;BME280;53704;52.532;6.426;2022-10-15T02:07:08;100678.63;;;9.49;100.00
63006;BME280;53704;52.532;6.426;2022-10-15T02:09:50;100674.69;;;9.69;100.00
63006;BME280;53704;52.532;6.426;2022-10-15T02:15:29;100670.06;;;9.88;100.00
63006;BME280;53704;52.532;6.426;2022-10-15T02:20:29;100662.63;;;9.73;100.00
63006;BME280;53704;52.532;6.426;2022-10-15T02:23:26;100655.78;;;9.87;100.00
63006;BME280;53704;52.532;6.426;2022-10-15T02:25:56;100662.31;;;9.85;100.00
63006;BME280;53704;52.532;6.426;2022-10-15T02:28:24;100656.16;;;10.01;100.00
63006;BME280;53704;52.532;6.426;2022-10-15T02:30:51;100657.28;;;9.82;100.00
63006;BME280;53704;52.532;6.426;2022-10-15T02:33:18;100661.00;;;9.89;100.00
63006;BME280;53704;52.532;6.426;2022-10-15T02:35:46;100659.81;;;9.91;100.00
63006;BME280;53704;52.532;6.426;2022-10-15T02:38:15;100652.94;;;9.81;100.00
63006;BME280;53704;52.532;6.426;2022-10-15T02:40:42;100656.31;;;9.99;100.00
63006;BME280;53704;52.532;6.426;2022-10-15T02:43:10;100645.44;;;10.09;100.00
63006;BME280;53704;52.532;6.426;2022-10-15T02:45:37;100650.25;;;9.97;100.00
63006;BME280;53704;52.532;6.426;2022-10-15T02:48:03;100650.75;;;9.84;100.00
63006;BME280;53704;52.532;6.426;2022-10-15T02:50:29;100648.41;;;9.98;100.00
63006;BME280;53704;52.532;6.426;2022-10-15T02:52:54;100644.22;;;10.03;100.00
63006;BME280;53704;52.532;6.426;2022-10-15T02:55:20;100651.97;;;10.14;100.00
63006;BME280;53704;52.532;6.426;2022-10-15T02:57:45;100644.22;;;9.95;100.00
63006;BME280;53704;52.532;6.426;2022-10-15T03:00:11;100651.50;;;10.19;100.00
63006;BME280;53704;52.532;6.426;2022-10-15T03:02:37;100647.97;;;10.10;100.00
63006;BME280;53704;52.532;6.426;2022-10-15T03:05:02;100647.25;;;9.92;100.00
63006;BME280;53704;52.532;6.426;2022-10-15T03:07:28;100645.94;;;10.12;100.00
63006;BME280;53704;52.532;6.426;2022-10-15T03:09:53;100639.50;;;9.97;100.00
63006;BME280;53704;52.532;6.426;2022-10-15T03:12:18;100641.03;;;10.00;100.00
63006;BME280;53704;52.532;6.426;2022-10-15T03:14:48;100636.50;;;10.00;100.00
63006;BME280;53704;52.532;6.426;2022-10-15T03:17:13;100637.28;;;9.84;100.00
63006;BME280;53704;52.532;6.426;2022-10-15T03:19:38;100641.88;;;9.92;100.00
63006;BME280;53704;52.532;6.426;2022-10-15T03:22:04;100635.25;;;9.78;100.00
63006;BME280;53704;52.532;6.426;2022-10-15T03:24:32;100642.03;;;9.99;100.00
63006;BME280;53704;52.532;6.426;2022-10-15T03:26:58;100636.00;;;9.96;100.00
63006;BME280;53704;52.532;6.426;2022-10-15T03:29:23;100642.19;;;9.89;100.00
63006;BME280;53704;52.532;6.426;2022-10-15T03:31:49;100632.06;;;9.74;100.00
63006;BME280;53704;52.532;6.426;2022-10-15T03:34:14;100626.16;;;9.71;100.00
63006;BME280;53704;52.532;6.426;2022-10-15T03:36:40;100632.22;;;9.65;100.00
63006;BME280;53704;52.532;6.426;2022-10-15T03:39:05;100624.16;;;9.73;100.00
63006;BME280;53704;52.532;6.426;2022-10-15T03:41:32;100625.66;;;9.67;100.00
63006;BME280;53704;52.532;6.426;2022-10-15T03:44:05;100622.31;;;9.82;100.00
63006;BME280;53704;52.532;6.426;2022-10-15T03:46:31;100617.59;;;9.75;100.00
63006;BME280;53704;52.532;6.426;2022-10-15T03:48:57;100624.31;;;9.71;100.00
63006;BME280;53704;52.532;6.426;2022-10-15T03:51:22;100611.94;;;9.87;100.00
63006;BME280;53704;52.532;6.426;2022-10-15T03:53:48;100614.97;;;9.84;100.00
63006;BME280;53704;52.532;6.426;2022-10-15T03:56:13;100605.34;;;9.73;100.00
63006;BME280;53704;52.532;6.426;2022-10-15T03:58:39;100612.69;;;9.63;100.00
63006;BME280;53704;52.532;6.426;2022-10-15T04:01:14;100604.94;;;9.59;100.00
63006;BME280;53704;52.532;6.426;2022-10-15T04:03:40;100608.25;;;9.45;100.00
63006;BME280;53704;52.532;6.426;2022-10-15T04:06:06;100610.28;;;9.43;100.00
63006;BME280;53704;52.532;6.426;2022-10-15T04:08:31;100612.16;;;9.51;100.00
63006;BME280;53704;52.532;6.426;2022-10-15T04:10:57;100595.88;;;9.52;100.00
63006;BME280;53704;52.532;6.426;2022-10-15T04:13:23;100604.59;;;9.46;100.00
63006;BME280;53704;52.532;6.426;2022-10-15T04:15:49;100601.06;;;9.46;100.00
63006;BME280;53704;52.532;6.426;2022-10-15T04:18:14;100603.44;;;9.57;100.00
63006;BME280;53704;52.532;6.426;2022-10-15T04:20:40;100600.72;;;9.49;100.00
63006;BME280;53704;52.532;6.426;2022-10-15T04:23:09;100603.78;;;9.54;100.00
63006;BME280;53704;52.532;6.426;2022-10-15T04:25:35;100597.91;;;9.58;100.00
63006;BME280;53704;52.532;6.426;2022-10-15T04:28:01;100602.19;;;9.35;100.00
63006;BME280;53704;52.532;6.426;2022-10-15T04:30:27;100604.94;;;9.59;100.00
63006;BME280;53704;52.532;6.426;2022-10-15T04:32:53;100604.59;;;9.46;100.00
63006;BME280;53704;52.532;6.426;2022-10-15T04:35:18;100608.78;;;9.49;100.00
63006;BME280;53704;52.532;6.426;2022-10-15T04:37:44;100607.47;;;9.53;100.00
63006;BME280;53704;52.532;6.426;2022-10-15T04:40:10;100611.53;;;9.65;100.00
63006;BME280;53704;52.532;6.426;2022-10-15T04:42:36;100615.53;;;9.61;100.00
63006;BME280;53704;52.532;6.426;2022-10-15T04:45:02;100616.03;;;9.56;100.00
63006;BME280;53704;52.532;6.426;2022-10-15T04:47:28;100617.53;;;9.51;100.00
63006;BME280;53704;52.532;6.426;2022-10-15T04:49:53;100613.66;;;9.53;100.00
63006;BME280;53704;52.532;6.426;2022-10-15T04:52:18;100628.16;;;9.69;100.00
63006;BME280;53704;52.532;6.426;2022-10-15T04:54:44;100619.25;;;9.60;100.00
63006;BME280;53704;52.532;6.426;2022-10-15T04:57:10;100620.38;;;9.49;100.00
63006;BME280;53704;52.532;6.426;2022-10-15T04:59:35;100610.94;;;9.45;100.00
63006;BME280;53704;52.532;6.426;2022-10-15T05:02:01;100617.22;;;9.54;100.00
63006;BME280;53704;52.532;6.426;2022-10-15T05:04:26;100618.94;;;9.63;100.00
63006;BME280;53704;52.532;6.426;2022-10-15T05:06:51;100619.09;;;9.62;100.00
63006;BME280;53704;52.532;6.426;2022-10-15T05:09:17;100613.00;;;9.59;100.00
63006;BME280;53704;52.532;6.426;2022-10-15T05:11:42;100615.19;;;9.56;100.00
63006;BME280;53704;52.532;6.426;2022-10-15T05:14:08;100605.13;;;9.58;100.00
63006;BME280;53704;52.532;6.426;2022-10-15T05:16:33;100615.91;;;9.66;100.00
63006;BME280;53704;52.532;6.426;2022-10-15T05:19:01;100616.75;;;9.67;100.00
63006;BME280;53704;52.532;6.426;2022-10-15T05:21:27;100617.25;;;9.62;100.00
63006;BME280;53704;52.532;6.426;2022-10-15T05:23:53;100618.03;;;9.54;100.00
63006;BME280;53704;52.532;6.426;2022-10-15T05:26:21;100618.19;;;9.53;100.00
63006;BME280;53704;52.532;6.426;2022-10-15T05:28:47;100633.84;;;9.57;100.00
63006;BME280;53704;52.532;6.426;2022-10-15T05:31:15;100624.03;;;9.40;100.00
63006;BME280;53704;52.532;6.426;2022-10-15T05:33:41;100624.91;;;9.49;100.00
63006;BME280;53704;52.532;6.426;2022-10-15T05:36:11;100617.69;;;9.49;100.00
63006;BME280;53704;52.532;6.426;2022-10-15T05:38:37;100619.19;;;9.52;100.00
63006;BME280;53704;52.532;6.426;2022-10-15T05:41:03;100626.09;;;9.54;100.00
63006;BME280;53704;52.532;6.426;2022-10-15T05:43:28;100628.13;;;9.52;100.00
63006;BME280;53704;52.532;6.426;2022-10-15T05:45:54;100628.16;;;9.60;100.00
63006;BME280;53704;52.532;6.426;2022-10-15T05:48:20;100630.00;;;9.60;100.00
63006;BME280;53704;52.532;6.426;2022-10-15T05:50:46;100629.53;;;9.65;100.00
63006;BME280;53704;52.532;6.426;2022-10-15T05:53:11;100631.50;;;9.63;100.00
63006;BME280;53704;52.532;6.426;2022-10-15T05:55:36;100630.03;;;9.68;100.00
63006;BME280;53704;52.532;6.426;2022-10-15T05:58:03;100629.88;;;9.70;100.00
63006;BME280;53704;52.532;6.426;2022-10-15T06:00:28;100627.03;;;9.80;100.00
63006;BME280;53704;52.532;6.426;2022-10-15T06:02:54;100632.09;;;9.91;100.00
63006;BME280;53704;52.532;6.426;2022-10-15T06:05:19;100626.19;;;9.79;100.00
63006;BME280;53704;52.532;6.426;2022-10-15T06:07:45;100628.34;;;9.75;100.00
63006;BME280;53704;52.532;6.426;2022-10-15T06:10:10;100629.41;;;9.91;100.00
63006;BME280;53704;52.532;6.426;2022-10-15T06:12:36;100640.19;;;9.99;100.00
63006;BME280;53704;52.532;6.426;2022-10-15T06:15:03;100634.97;;;9.98;100.00
63006;BME280;53704;52.532;6.426;2022-10-15T06:17:29;100630.25;;;9.91;100.00
63006;BME280;53704;52.532;6.426;2022-10-15T06:19:54;100627.94;;;9.96;100.00
63006;BME280;53704;52.532;6.426;2022-10-15T06:22:20;100630.78;;;10.03;100.00
63006;BME280;53704;52.532;6.426;2022-10-15T06:24:45;100629.41;;;9.99;100.00
63006;BME280;53704;52.532;6.426;2022-10-15T06:27:10;100629.31;;;10.09;100.00
63006;BME280;53704;52.532;6.426;2022-10-15T06:29:37;100630.28;;;10.08;100.00
63006;BME280;53704;52.532;6.426;2022-10-15T06:32:02;100624.09;;;10.16;100.00
63006;BME280;53704;52.532;6.426;2022-10-15T06:34:28;100621.72;;;10.12;100.00
63006;BME280;53704;52.532;6.426;2022-10-15T06:36:53;100620.38;;;10.17;100.00
63006;BME280;53704;52.532;6.426;2022-10-15T06:39:18;100622.72;;;10.20;100.00
63006;BME280;53704;52.532;6.426;2022-10-15T06:41:44;100625.47;;;10.28;100.00
63006;BME280;53704;52.532;6.426;2022-10-15T06:44:09;100632.88;;;10.34;100.00
63006;BME280;53704;52.532;6.426;2022-10-15T06:46:35;100628.19;;;10.36;100.00
63006;BME280;53704;52.532;6.426;2022-10-15T06:49:01;100636.25;;;10.36;100.00
63006;BME280;53704;52.532;6.426;2022-10-15T06:51:27;100624.25;;;10.30;100.00
63006;BME280;53704;52.532;6.426;2022-10-15T06:53:52;100635.59;;;10.42;100.00
63006;BME280;53704;52.532;6.426;2022-10-15T06:56:17;100639.09;;;10.43;100.00
63006;BME280;53704;52.532;6.426;2022-10-15T06:58:43;100641.47;;;10.54;100.00
63006;BME280;53704;52.532;6.426;2022-10-15T07:01:09;100643.00;;;10.48;100.00
63006;BME280;53704;52.532;6.426;2022-10-15T07:03:35;100644.66;;;10.66;100.00
63006;BME280;53704;52.532;6.426;2022-10-15T07:06:05;100647.53;;;10.64;100.00
63006;BME280;53704;52.532;6.426;2022-10-15T07:08:31;100631.72;;;10.61;100.00
63006;BME280;53704;52.532;6.426;2022-10-15T07:10:57;100631.69;;;10.70;100.00
63006;BME280;53704;52.532;6.426;2022-10-15T07:13:24;100642.66;;;10.60;100.00
63006;BME280;53704;52.532;6.426;2022-10-15T07:15:50;100632.19;;;10.81;100.00
63006;BME280;53704;52.532;6.426;2022-10-15T07:18:18;100633.88;;;10.82;100.00
63006;BME280;53704;52.532;6.426;2022-10-15T07:20:44;100633.88;;;10.82;100.00
63006;BME280;53704;52.532;6.426;2022-10-15T07:23:09;100639.94;;;10.76;100.00
63006;BME280;53704;52.532;6.426;2022-10-15T07:25:35;100639.59;;;10.88;100.00
63006;BME280;53704;52.532;6.426;2022-10-15T07:28:00;100638.25;;;10.92;100.00
63006;BME280;53704;52.532;6.426;2022-10-15T07:30:26;100636.53;;;10.91;100.00
63006;BME280;53704;52.532;6.426;2022-10-15T07:32:54;100639.94;;;10.93;100.00
63006;BME280;53704;52.532;6.426;2022-10-15T07:35:19;100637.72;;;10.96;100.00
63006;BME280;53704;52.532;6.426;2022-10-15T07:37:45;100635.53;;;11.00;100.00
63006;BME280;53704;52.532;6.426;2022-10-15T07:40:11;100628.78;;;11.12;100.00
63006;BME280;53704;52.532;6.426;2022-10-15T07:42:37;100638.88;;;11.18;100.00
63006;BME280;53704;52.532;6.426;2022-10-15T07:45:05;100641.38;;;11.20;100.00
63006;BME280;53704;52.532;6.426;2022-10-15T07:47:30;100637.34;;;11.16;100.00
63006;BME280;53704;52.532;6.426;2022-10-15T07:49:56;100629.59;;;11.13;100.00
63006;BME280;53704;52.532;6.426;2022-10-15T07:52:22;100636.44;;;11.32;100.00
63006;BME280;53704;52.532;6.426;2022-10-15T07:54:47;100647.59;;;11.20;100.00
63006;BME280;53704;52.532;6.426;2022-10-15T07:57:13;100640.88;;;11.25;100.00
63006;BME280;53704;52.532;6.426;2022-10-15T07:59:38;100642.19;;;11.37;100.00
63006;BME280;53704;52.532;6.426;2022-10-15T08:02:04;100644.53;;;11.32;100.00
63006;BME280;53704;52.532;6.426;2022-10-15T08:04:29;100650.97;;;11.31;100.00
63006;BME280;53704;52.532;6.426;2022-10-15T08:06:55;100643.22;;;11.28;100.00
63006;BME280;53704;52.532;6.426;2022-10-15T08:09:20;100646.03;;;11.43;100.00
63006;BME280;53704;52.532;6.426;2022-10-15T08:11:46;100639.28;;;11.38;100.00
63006;BME280;53704;52.532;6.426;2022-10-15T08:14:11;100643.72;;;11.31;100.00
63006;BME280;53704;52.532;6.426;2022-10-15T08:16:36;100647.88;;;11.42;100.00
63006;BME280;53704;52.532;6.426;2022-10-15T08:19:02;100645.41;;;11.32;100.00
63006;BME280;53704;52.532;6.426;2022-10-15T08:21:27;100649.28;;;11.30;100.00
63006;BME280;53704;52.532;6.426;2022-10-15T08:23:53;100652.28;;;11.35;100.00
63006;BME280;53704;52.532;6.426;2022-10-15T08:26:19;100651.13;;;11.29;100.00
63006;BME280;53704;52.532;6.426;2022-10-15T08:28:44;100649.72;;;11.41;100.00
63006;BME280;53704;52.532;6.426;2022-10-15T08:31:10;100647.38;;;11.38;100.00
63006;BME280;53704;52.532;6.426;2022-10-15T08:33:36;100641.31;;;11.36;100.00
63006;BME280;53704;52.532;6.426;2022-10-15T08:36:06;100644.84;;;11.45;100.00
63006;BME280;53704;52.532;6.426;2022-10-15T08:38:32;100646.81;;;11.59;100.00
63006;BME280;53704;52.532;6.426;2022-10-15T08:40:59;100636.06;;;11.43;100.00
63006;BME280;53704;52.532;6.426;2022-10-15T08:43:35;100629.19;;;11.40;100.00
63006;BME280;53704;52.532;6.426;2022-10-15T08:46:05;100630.69;;;11.51;100.00
63006;BME280;53704;52.532;6.426;2022-10-15T08:48:37;100637.56;;;11.54;100.00
63006;BME280;53704;52.532;6.426;2022-10-15T08:53:44;100636.97;;;11.75;100.00
63006;BME280;53704;52.532;6.426;2022-10-15T08:56:35;100630.59;;;11.68;100.00
63006;BME280;53704;52.532;6.426;2022-10-15T09:01:58;100633.47;;;11.66;100.00
63006;BME280;53704;52.532;6.426;2022-10-15T09:07:08;100629.00;;;11.82;100.00
63006;BME280;53704;52.532;6.426;2022-10-15T09:09:46;100631.84;;;11.88;100.00
63006;BME280;53704;52.532;6.426;2022-10-15T09:15:00;100626.06;;;12.00;100.00
63006;BME280;53704;52.532;6.426;2022-10-15T09:17:29;100626.72;;;12.02;100.00
63006;BME280;53704;52.532;6.426;2022-10-15T09:19:57;100614.97;;;11.94;100.00
63006;BME280;53704;52.532;6.426;2022-10-15T09:22:29;100615.25;;;12.00;100.00
63006;BME280;53704;52.532;6.426;2022-10-15T09:24:55;100615.88;;;12.10;100.00
63006;BME280;53704;52.532;6.426;2022-10-15T09:32:49;100604.19;;;12.41;100.00
63006;BME280;53704;52.532;6.426;2022-10-15T09:35:46;100608.09;;;12.38;100.00
63006;BME280;53704;52.532;6.426;2022-10-15T09:41:11;100598.41;;;12.82;100.00
63006;BME280;53704;52.532;6.426;2022-10-15T09:43:42;100596.28;;;12.92;100.00
63006;BME280;53704;52.532;6.426;2022-10-15T09:46:09;100598.03;;;12.85;100.00
63006;BME280;53704;52.532;6.426;2022-10-15T09:48:51;100601.47;;;12.79;100.00
63006;BME280;53704;52.532;6.426;2022-10-15T09:51:34;100594.22;;;13.09;100.00
63006;BME280;53704;52.532;6.426;2022-10-15T09:56:47;100582.03;;;13.13;100.00
63006;BME280;53704;52.532;6.426;2022-10-15T09:59:18;100592.28;;;13.33;100.00
63006;BME280;53704;52.532;6.426;2022-10-15T10:02:15;100594.25;;;13.39;100.00
63006;BME280;53704;52.532;6.426;2022-10-15T10:04:41;100590.44;;;13.33;100.00
63006;BME280;53704;52.532;6.426;2022-10-15T10:09:56;100577.75;;;13.19;100.00
63006;BME280;53704;52.532;6.426;2022-10-15T10:12:27;100581.56;;;13.25;100.00
63006;BME280;53704;52.532;6.426;2022-10-15T10:17:56;100576.22;;;13.31;100.00
63006;BME280;53704;52.532;6.426;2022-10-15T10:20:25;100575.63;;;13.44;100.00
63006;BME280;53704;52.532;6.426;2022-10-15T10:22:59;100571.56;;;13.55;100.00
63006;BME280;53704;52.532;6.426;2022-10-15T10:28:16;100552.53;;;13.63;100.00
63006;BME280;53704;52.532;6.426;2022-10-15T10:33:33;100544.88;;;13.67;100.00
63006;BME280;53704;52.532;6.426;2022-10-15T10:36:00;100542.00;;;13.53;100.00
63006;BME280;53704;52.532;6.426;2022-10-15T10:38:34;100541.53;;;13.65;100.00
63006;BME280;53704;52.532;6.426;2022-10-15T10:41:10;100533.28;;;13.73;100.00
63006;BME280;53704;52.532;6.426;2022-10-15T10:43:38;100544.50;;;13.91;100.00
63006;BME280;53704;52.532;6.426;2022-10-15T10:46:15;100541.47;;;14.23;100.00
63006;BME280;53704;52.532;6.426;2022-10-15T10:48:43;100534.53;;;13.92;100.00
63006;BME280;53704;52.532;6.426;2022-10-15T10:51:29;100539.84;;;14.07;100.00
63006;BME280;53704;52.532;6.426;2022-10-15T10:56:43;100524.84;;;13.83;100.00
63006;BME280;53704;52.532;6.426;2022-10-15T10:59:19;100514.75;;;13.70;100.00
63006;BME280;53704;52.532;6.426;2022-10-15T11:01:46;100509.25;;;13.85;100.00
63006;BME280;53704;52.532;6.426;2022-10-15T11:04:13;100503.91;;;14.13;100.00
63006;BME280;53704;52.532;6.426;2022-10-15T11:22:46;100496.22;;;14.45;100.00
63006;BME280;53704;52.532;6.426;2022-10-15T11:25:34;100504.28;;;14.60;100.00
63006;BME280;53704;52.532;6.426;2022-10-15T11:33:37;100490.13;;;14.36;100.00
63006;BME280;53704;52.532;6.426;2022-10-15T11:38:59;100480.53;;;14.62;100.00
63006;BME280;53704;52.532;6.426;2022-10-15T11:45:24;100492.19;;;14.62;100.00
63006;BME280;53704;52.532;6.426;2022-10-15T11:50:29;100481.03;;;14.16;100.00
63006;BME280;53704;52.532;6.426;2022-10-15T11:55:55;100482.50;;;14.46;100.00
63006;BME280;53704;52.532;6.426;2022-10-15T11:58:42;100476.59;;;14.36;100.00
63006;BME280;53704;52.532;6.426;2022-10-15T12:01:22;100465.47;;;14.59;100.00
63006;BME280;53704;52.532;6.426;2022-10-15T12:03:53;100461.69;;;14.47;100.00
63006;BME280;53704;52.532;6.426;2022-10-15T12:06:25;100458.19;;;14.53;100.00
63006;BME280;53704;52.532;6.426;2022-10-15T12:08:52;100461.13;;;14.58;100.00
63006;BME280;53704;52.532;6.426;2022-10-15T12:11:43;100456.88;;;14.77;100.00
63006;BME280;53704;52.532;6.426;2022-10-15T12:14:24;100449.34;;;14.73;100.00
63006;BME280;53704;52.532;6.426;2022-10-15T12:17:09;100443.94;;;14.73;100.00
63006;BME280;53704;52.532;6.426;2022-10-15T12:19:45;100445.56;;;14.67;100.00
63006;BME280;53704;52.532;6.426;2022-10-15T12:22:30;100452.13;;;14.58;100.00
63006;BME280;53704;52.532;6.426;2022-10-15T12:24:56;100445.84;;;14.79;100.00
63006;BME280;53704;52.532;6.426;2022-10-15T12:27:27;100441.19;;;14.66;100.00
63006;BME280;53704;52.532;6.426;2022-10-15T12:32:42;100438.38;;;14.59;100.00
63006;BME280;53704;52.532;6.426;2022-10-15T12:37:39;100426.69;;;14.52;100.00
63006;BME280;53704;52.532;6.426;2022-10-15T12:42:55;100424.22;;;14.57;100.00
63006;BME280;53704;52.532;6.426;2022-10-15T12:45:24;100420.34;;;14.67;100.00
63006;BME280;53704;52.532;6.426;2022-10-15T12:50:40;100418.84;;;14.64;100.00
63006;BME280;53704;52.532;6.426;2022-10-15T12:58:46;100410.63;;;14.44;100.00
63006;BME280;53704;52.532;6.426;2022-10-15T13:08:44;100410.25;;;14.54;100.00
63006;BME280;53704;52.532;6.426;2022-10-15T13:11:21;100408.97;;;14.50;100.00
63006;BME280;53704;52.532;6.426;2022-10-15T13:13:49;100400.75;;;14.29;100.00
63006;BME280;53704;52.532;6.426;2022-10-15T13:16:17;100399.59;;;14.45;100.00
63006;BME280;53704;52.532;6.426;2022-10-15T13:18:48;100412.00;;;14.68;100.00
63006;BME280;53704;52.532;6.426;2022-10-15T13:21:15;100416.81;;;14.66;100.00
63006;BME280;53704;52.532;6.426;2022-10-15T13:23:46;100415.88;;;14.52;100.00
63006;BME280;53704;52.532;6.426;2022-10-15T13:26:22;100413.97;;;14.53;100.00
63006;BME280;53704;52.532;6.426;2022-10-15T13:28:50;100412.13;;;14.53;100.00
63006;BME280;53704;52.532;6.426;2022-10-15T13:31:23;100412.63;;;14.63;100.00
63006;BME280;53704;52.532;6.426;2022-10-15T13:33:51;100420.47;;;14.58;100.00
63006;BME280;53704;52.532;6.426;2022-10-15T13:36:23;100417.47;;;14.46;100.00
63006;BME280;53704;52.532;6.426;2022-10-15T13:38:56;100427.94;;;14.56;100.00
63006;BME280;53704;52.532;6.426;2022-10-15T13:41:24;100418.59;;;14.59;100.00
63006;BME280;53704;52.532;6.426;2022-10-15T13:43:52;100415.88;;;14.52;100.00
63006;BME280;53704;52.532;6.426;2022-10-15T13:46:22;100428.81;;;14.57;100.00
63006;BME280;53704;52.532;6.426;2022-10-15T13:48:47;100426.19;;;14.70;100.00
63006;BME280;53704;52.532;6.426;2022-10-15T13:51:13;100421.88;;;14.82;100.00
63006;BME280;53704;52.532;6.426;2022-10-15T13:53:39;100425.38;;;14.76;100.00
63006;BME280;53704;52.532;6.426;2022-10-15T13:56:23;100426.41;;;14.75;100.00
63006;BME280;53704;52.532;6.426;2022-10-15T13:58:50;100427.28;;;14.76;100.00
63006;BME280;53704;52.532;6.426;2022-10-15T14:01:20;100427.47;;;14.74;100.00
63006;BME280;53704;52.532;6.426;2022-10-15T14:03:46;100429.81;;;14.84;100.00
63006;BME280;53704;52.532;6.426;2022-10-15T14:06:34;100430.69;;;14.98;100.00
63006;BME280;53704;52.532;6.426;2022-10-15T14:09:19;100427.09;;;14.84;100.00
63006;BME280;53704;52.532;6.426;2022-10-15T14:11:48;100433.66;;;15.10;100.00
63006;BME280;53704;52.532;6.426;2022-10-15T14:17:00;100431.53;;;15.05;100.00
63006;BME280;53704;52.532;6.426;2022-10-15T14:19:27;100434.03;;;15.00;100.00
63006;BME280;53704;52.532;6.426;2022-10-15T14:21:58;100444.53;;;15.16;100.00
63006;BME280;53704;52.532;6.426;2022-10-15T14:24:32;100445.69;;;15.00;100.00
63006;BME280;53704;52.532;6.426;2022-10-15T14:27:22;100438.25;;;15.09;100.00
63006;BME280;53704;52.532;6.426;2022-10-15T14:29:54;100457.81;;;15.05;100.00
63006;BME280;53704;52.532;6.426;2022-10-15T14:32:26;100457.47;;;15.21;100.00
63006;BME280;53704;52.532;6.426;2022-10-15T14:35:02;100450.78;;;15.10;100.00
63006;BME280;53704;52.532;6.426;2022-10-15T14:40:11;100459.94;;;15.09;100.00
63006;BME280;53704;52.532;6.426;2022-10-15T14:45:24;100457.47;;;15.21;100.00
63006;BME280;53704;52.532;6.426;2022-10-15T14:47:56;100462.44;;;15.11;100.00
63006;BME280;53704;52.532;6.426;2022-10-15T14:50:25;100464.94;;;15.06;100.00
63006;BME280;53704;52.532;6.426;2022-10-15T14:52:52;100459.91;;;15.02;100.00
63006;BME280;53704;52.532;6.426;2022-10-15T14:55:34;100462.84;;;15.08;100.00